createdAt,value
2024-05-09T00:01:03.480Z,93.06
2024-05-09T00:06:05.018Z,93.48
2024-05-09T00:11:06.561Z,92.90
2024-05-09T00:16:07.953Z,92.91
2024-05-09T00:21:09.509Z,93.10
2024-05-09T00:26:11.160Z,93.49
2024-05-09T00:31:12.572Z,93.99
2024-05-09T00:36:13.933Z,94.10
2024-05-09T00:41:18.035Z,94.27
2024-05-09T00:46:20.936Z,94.30
2024-05-09T00:51:22.341Z,94.32
2024-05-09T00:56:23.835Z,94.23
2024-05-09T01:01:25.491Z,94.43
2024-05-09T01:06:26.870Z,94.58
2024-05-09T01:11:28.271Z,94.85
2024-05-09T01:16:29.658Z,94.71
2024-05-09T01:21:31.004Z,94.82
2024-05-09T01:26:32.374Z,95.32
2024-05-09T01:31:33.744Z,95.25
2024-05-09T01:36:35.089Z,95.10
2024-05-09T01:41:36.458Z,95.43
2024-05-09T01:46:37.787Z,95.72
2024-05-09T01:51:39.099Z,95.60
2024-05-09T01:56:40.454Z,95.77
2024-05-09T02:01:56.190Z,95.81
2024-05-09T02:06:59.040Z,95.63
2024-05-09T02:12:00.586Z,95.88
2024-05-09T02:17:02.260Z,95.85
2024-05-09T02:22:03.714Z,96.18
2024-05-09T02:27:05.111Z,96.25
2024-05-09T02:32:06.538Z,96.42
2024-05-09T02:37:07.933Z,96.74
2024-05-09T02:42:09.272Z,97.20
2024-05-09T02:47:10.632Z,96.91
2024-05-09T02:52:12.023Z,96.51
2024-05-09T02:57:13.340Z,96.58
2024-05-09T03:02:14.801Z,96.75
2024-05-09T03:07:17.827Z,96.71
2024-05-09T03:12:21.057Z,96.81
2024-05-09T03:17:23.966Z,96.69
2024-05-09T03:22:25.487Z,96.84
2024-05-09T03:27:26.903Z,96.94
2024-05-09T03:32:28.538Z,96.54
2024-05-09T03:37:30.068Z,96.91
2024-05-09T03:42:31.395Z,96.64
2024-05-09T03:47:35.284Z,96.42
2024-05-09T03:52:36.832Z,96.86
2024-05-09T03:57:38.156Z,97.06
2024-05-09T04:02:39.567Z,97.16
2024-05-09T04:07:40.969Z,97.00
2024-05-09T04:12:42.315Z,96.26
2024-05-09T04:17:51.174Z,97.03
2024-05-09T04:22:52.725Z,97.25
2024-05-09T04:27:55.875Z,96.46
2024-05-09T04:32:57.378Z,96.71
2024-05-09T04:37:58.781Z,97.20
2024-05-09T04:43:00.118Z,97.04
2024-05-09T04:48:02.174Z,97.38
2024-05-09T04:53:04.006Z,97.43
2024-05-09T04:58:05.627Z,97.13
2024-05-09T05:03:08.479Z,97.59
2024-05-09T05:08:11.129Z,97.44
2024-05-09T05:13:16.388Z,97.97
2024-05-09T05:18:18.194Z,98.17
2024-05-09T05:23:20.355Z,96.77
2024-05-09T05:28:22.057Z,96.77
2024-05-09T05:33:23.759Z,96.63
2024-05-09T05:38:28.095Z,97.30
2024-05-09T05:43:30.056Z,97.95
2024-05-09T05:48:31.591Z,98.20
2024-05-09T05:53:33.477Z,97.73
2024-05-09T05:58:34.998Z,97.45
2024-05-09T06:03:36.592Z,97.96
2024-05-09T06:08:38.090Z,98.15
2024-05-09T06:13:39.450Z,98.58
2024-05-09T06:18:41.050Z,98.03
2024-05-09T06:23:42.444Z,98.06
2024-05-09T06:28:46.334Z,97.60
2024-05-09T06:33:47.773Z,97.72
2024-05-09T06:38:49.396Z,97.90
2024-05-09T06:43:50.847Z,98.30
2024-05-09T06:48:52.855Z,98.46
2024-05-09T06:53:54.555Z,97.96
2024-05-09T06:58:55.951Z,97.33
2024-05-09T07:03:57.461Z,97.79
2024-05-09T07:08:58.897Z,97.72
2024-05-09T07:14:00.259Z,97.34
2024-05-09T07:19:01.765Z,98.06
2024-05-09T07:24:03.201Z,97.88
2024-05-09T07:29:04.644Z,95.99
2024-05-09T07:34:06.178Z,96.27
2024-05-09T07:39:07.581Z,95.36
2024-05-09T07:44:08.956Z,95.29
2024-05-09T07:50:54.062Z,94.31
2024-05-09T07:54:31.838Z,92.32
2024-05-09T07:59:37.174Z,90.97
2024-05-09T08:04:39.371Z,90.75
2024-05-09T08:09:40.819Z,89.46
2024-05-09T08:14:42.183Z,88.98
2024-05-09T08:19:43.687Z,88.39
2024-05-09T08:24:46.669Z,86.89
2024-05-09T08:29:48.119Z,86.74
2024-05-09T08:34:49.516Z,86.78
2024-05-09T08:39:50.882Z,84.24
2024-05-09T08:44:52.256Z,82.68
2024-05-09T08:49:58.243Z,83.33
2024-05-09T08:54:59.657Z,78.63
2024-05-09T09:00:01.023Z,78.55
2024-05-09T09:05:02.533Z,75.42
2024-05-09T09:10:05.568Z,71.55
2024-05-09T09:15:07.152Z,73.36
2024-05-09T09:20:14.209Z,67.96
2024-05-09T09:25:18.091Z,65.19
2024-05-09T09:30:31.676Z,65.68
2024-05-09T09:35:38.112Z,61.99
2024-05-09T09:40:44.751Z,58.93
2024-05-09T09:45:49.974Z,57.02
2024-05-09T09:50:51.383Z,56.77
2024-05-09T09:55:52.799Z,52.05
2024-05-09T10:00:54.372Z,48.09
2024-05-09T10:05:55.916Z,44.84
2024-05-09T10:10:57.452Z,43.84
2024-05-09T10:15:58.907Z,45.22
2024-05-09T10:21:00.304Z,44.16
2024-05-09T10:26:01.894Z,41.42
2024-05-09T10:31:03.350Z,40.21
2024-05-09T10:36:04.724Z,40.96
2024-05-09T10:41:06.050Z,40.94
2024-05-09T10:46:07.633Z,41.46
2024-05-09T10:51:09.181Z,43.44
2024-05-09T10:56:10.570Z,44.03
2024-05-09T11:01:12.222Z,43.93
2024-05-09T11:06:13.668Z,41.58
2024-05-09T11:11:15.099Z,40.52
2024-05-09T11:16:16.770Z,39.80
2024-05-09T11:21:18.318Z,38.25
2024-05-09T11:26:20.579Z,40.43
2024-05-09T11:31:22.220Z,36.40
2024-05-09T11:36:23.736Z,41.17
2024-05-09T11:41:27.092Z,46.03
2024-05-09T11:46:28.497Z,40.71
2024-05-09T11:51:29.934Z,41.32
2024-05-09T11:56:31.296Z,43.02
2024-05-09T12:01:32.866Z,39.44
2024-05-09T12:06:34.345Z,39.70
2024-05-09T12:11:35.735Z,42.12
2024-05-09T12:16:37.191Z,45.84
2024-05-09T12:21:38.620Z,48.19
2024-05-09T12:26:39.962Z,50.70
2024-05-09T12:31:41.338Z,49.37
2024-05-09T12:36:42.753Z,47.89
2024-05-09T12:41:44.094Z,47.55
2024-05-09T12:46:45.461Z,47.34
2024-05-09T12:51:46.797Z,49.06
2024-05-09T12:56:48.134Z,45.53
2024-05-09T13:01:49.556Z,45.96
2024-05-09T13:06:50.940Z,43.12
2024-05-09T13:11:52.759Z,47.67
2024-05-09T13:16:54.249Z,43.57
2024-05-09T13:21:55.626Z,41.88
2024-05-09T13:26:56.971Z,43.41
2024-05-09T13:31:58.330Z,41.35
2024-05-09T13:36:59.729Z,43.78
2024-05-09T13:42:01.075Z,47.11
2024-05-09T13:47:02.461Z,42.37
2024-05-09T13:52:03.853Z,41.99
2024-05-09T13:57:05.212Z,44.35
2024-05-09T14:02:06.964Z,41.27
2024-05-09T14:07:10.142Z,41.63
2024-05-09T14:12:11.769Z,41.70
2024-05-09T14:17:13.188Z,45.46
2024-05-09T14:22:14.687Z,45.07
2024-05-09T14:27:16.055Z,46.46
2024-05-09T14:32:17.403Z,47.39
2024-05-09T14:37:18.778Z,45.26
2024-05-09T14:42:21.056Z,43.73
2024-05-09T14:47:22.573Z,45.20
2024-05-09T14:52:23.966Z,46.22
2024-05-09T14:57:25.403Z,44.83
2024-05-09T15:02:26.895Z,45.90
2024-05-09T15:07:28.483Z,48.38
2024-05-09T15:12:29.898Z,46.34
2024-05-09T15:17:31.946Z,44.75
2024-05-09T15:22:33.387Z,46.61
2024-05-09T15:27:34.884Z,43.91
2024-05-09T15:32:36.382Z,44.33
2024-05-09T15:37:37.832Z,45.93
2024-05-09T15:42:41.696Z,44.95
2024-05-09T15:47:45.083Z,45.23
2024-05-09T15:52:46.548Z,46.32
2024-05-09T15:57:48.003Z,47.46
2024-05-09T16:02:49.473Z,45.70
2024-05-09T16:07:50.830Z,47.04
2024-05-09T16:12:52.225Z,46.93
2024-05-09T16:17:53.975Z,47.18
2024-05-09T16:22:55.346Z,45.32
2024-05-09T16:27:56.761Z,45.40
2024-05-09T16:32:58.207Z,47.26
2024-05-09T16:37:59.720Z,49.60
2024-05-09T16:43:01.127Z,46.99
2024-05-09T16:48:02.705Z,48.16
2024-05-09T16:53:05.346Z,47.12
2024-05-09T16:58:08.309Z,48.51
2024-05-09T17:03:10.630Z,48.71
2024-05-09T17:08:12.711Z,49.76
2024-05-09T17:13:14.124Z,50.78
2024-05-09T17:18:15.790Z,51.39
2024-05-09T17:23:17.383Z,51.34
2024-05-09T17:28:19.060Z,51.69
2024-05-09T17:33:20.658Z,52.10
2024-05-09T17:38:23.622Z,53.40
2024-05-09T17:43:25.201Z,54.42
2024-05-09T17:48:26.719Z,54.80
2024-05-09T17:53:28.116Z,54.80
2024-05-09T17:58:29.696Z,55.28
2024-05-09T18:03:31.355Z,55.27
2024-05-09T18:08:32.874Z,55.70
2024-05-09T18:13:34.222Z,54.91
2024-05-09T18:18:35.747Z,55.91
2024-05-09T18:23:37.330Z,55.76
2024-05-09T18:28:38.652Z,56.41
2024-05-09T18:33:40.231Z,58.48
2024-05-09T18:38:41.704Z,57.49
2024-05-09T18:43:45.428Z,57.43
2024-05-09T18:48:50.147Z,58.15
2024-05-09T18:53:54.726Z,58.47
2024-05-09T18:58:56.060Z,59.47
2024-05-09T19:03:57.570Z,60.67
2024-05-09T19:08:59.057Z,60.82
2024-05-09T19:14:04.264Z,61.12
2024-05-09T19:19:06.021Z,62.27
2024-05-09T19:24:07.860Z,62.40
2024-05-09T19:29:09.208Z,62.71
2024-05-09T19:34:10.608Z,63.05
2024-05-09T19:39:11.987Z,63.39
2024-05-09T19:44:13.346Z,62.62
2024-05-09T19:49:14.921Z,63.02
2024-05-09T19:54:16.331Z,62.98
2024-05-09T19:59:17.655Z,63.65
2024-05-09T20:04:19.156Z,64.57
2024-05-09T20:09:20.644Z,64.67
2024-05-09T20:14:22.320Z,64.93
2024-05-09T20:19:23.894Z,65.09
2024-05-09T20:24:25.436Z,66.09
2024-05-09T20:29:26.777Z,66.89
2024-05-09T20:34:28.248Z,67.31
2024-05-09T20:39:29.679Z,67.67
2024-05-09T20:44:31.005Z,67.66
2024-05-09T20:49:32.411Z,67.86
2024-05-09T20:54:33.971Z,68.53
2024-05-09T20:59:35.322Z,69.63
2024-05-09T21:04:36.972Z,70.65
2024-05-09T21:09:38.394Z,71.56
2024-05-09T21:14:39.756Z,71.69
2024-05-09T21:19:41.100Z,73.52
2024-05-09T21:24:42.643Z,74.28
2024-05-09T21:29:44.045Z,74.72
2024-05-09T21:34:45.471Z,75.22
2024-05-09T21:39:47.790Z,75.10
2024-05-09T21:44:49.158Z,74.32
2024-05-09T21:49:50.483Z,73.95
2024-05-09T21:54:51.924Z,74.43
2024-05-09T21:59:53.278Z,74.79
2024-05-09T22:04:54.741Z,75.03
2024-05-09T22:09:56.207Z,76.33
2024-05-09T22:14:57.594Z,76.50
2024-05-09T22:19:58.937Z,78.55
2024-05-09T22:25:00.468Z,79.53
2024-05-09T22:30:02.827Z,79.66
2024-05-09T22:35:07.640Z,80.49
2024-05-09T22:40:10.742Z,81.05
2024-05-09T22:45:13.937Z,80.93
2024-05-09T22:50:22.386Z,81.53
2024-05-09T22:55:27.812Z,81.37
2024-05-09T23:00:32.042Z,81.48
2024-05-09T23:05:34.415Z,82.63
2024-05-09T23:10:37.728Z,83.46
2024-05-09T23:15:39.918Z,84.36
2024-05-09T23:20:41.288Z,84.85
2024-05-09T23:25:42.749Z,85.19
2024-05-09T23:30:44.221Z,84.33
2024-05-09T23:35:45.571Z,84.18
2024-05-09T23:40:46.948Z,83.70
2024-05-09T23:45:48.326Z,83.43
2024-05-09T23:50:49.703Z,82.79
2024-05-09T23:55:51.057Z,82.84
